createdAt,value
2017-12-05T00:00:44.173Z,971.32
2017-12-05T00:01:44.184Z,971.31
2017-12-05T00:02:44.198Z,971.34
2017-12-05T00:03:44.210Z,971.31
2017-12-05T00:04:44.224Z,971.29
2017-12-05T00:05:44.235Z,971.36
2017-12-05T00:06:44.248Z,971.38
2017-12-05T00:07:44.262Z,971.37
2017-12-05T00:08:44.275Z,971.35
2017-12-05T00:09:44.288Z,971.3
2017-12-05T00:10:44.302Z,971.28
2017-12-05T00:11:44.314Z,971.37
2017-12-05T00:12:44.326Z,971.32
2017-12-05T00:13:44.338Z,971.32
2017-12-05T00:14:44.352Z,971.35
2017-12-05T00:15:44.365Z,971.38
2017-12-05T00:16:44.376Z,971.4
2017-12-05T00:17:44.391Z,971.43
2017-12-05T00:18:44.407Z,971.44
2017-12-05T00:19:44.417Z,971.47
2017-12-05T00:20:44.427Z,971.45
2017-12-05T00:21:44.444Z,971.46
2017-12-05T00:22:44.453Z,971.51
2017-12-05T00:23:44.465Z,971.51
2017-12-05T00:24:44.480Z,971.49
2017-12-05T00:25:44.491Z,971.54
2017-12-05T00:26:44.505Z,971.42
2017-12-05T00:27:44.516Z,971.43
2017-12-05T00:28:44.529Z,971.42
2017-12-05T00:29:44.542Z,971.46
2017-12-05T00:30:44.555Z,971.45
2017-12-05T00:31:44.568Z,971.46
2017-12-05T00:32:44.581Z,971.52
2017-12-05T00:33:44.593Z,971.53
2017-12-05T00:34:44.619Z,971.52
2017-12-05T00:35:44.618Z,971.46
2017-12-05T00:36:44.637Z,971.46
2017-12-05T00:37:44.647Z,971.48
2017-12-05T00:38:44.657Z,971.5
2017-12-05T00:39:44.670Z,971.48
2017-12-05T00:40:44.683Z,971.43
2017-12-05T00:41:44.697Z,971.52
2017-12-05T00:42:44.709Z,971.5
2017-12-05T00:43:44.720Z,971.48
2017-12-05T00:44:44.733Z,971.51
2017-12-05T00:45:44.746Z,971.51
2017-12-05T00:46:44.760Z,971.54
2017-12-05T00:47:44.772Z,971.52
2017-12-05T00:48:44.786Z,971.57
2017-12-05T00:49:44.798Z,971.56
2017-12-05T00:50:44.814Z,971.61
2017-12-05T00:51:44.833Z,971.67
2017-12-05T00:52:44.836Z,971.64
2017-12-05T00:53:44.850Z,971.69
2017-12-05T00:54:44.861Z,971.66
2017-12-05T00:55:44.876Z,971.67
2017-12-05T00:56:44.886Z,971.68
2017-12-05T00:57:44.901Z,971.7
2017-12-05T00:58:44.913Z,971.64
2017-12-05T00:59:44.926Z,971.71
2017-12-05T01:00:44.938Z,971.71
2017-12-05T01:01:44.951Z,971.69
2017-12-05T01:02:44.965Z,971.7
2017-12-05T01:03:44.977Z,971.7
2017-12-05T01:04:44.989Z,971.67
2017-12-05T01:05:45.003Z,971.69
2017-12-05T01:06:45.018Z,971.76
2017-12-05T01:07:45.032Z,971.69
2017-12-05T01:08:45.042Z,971.63
2017-12-05T01:09:45.052Z,971.7
2017-12-05T01:10:45.066Z,971.73
2017-12-05T01:11:45.077Z,971.8
2017-12-05T01:12:45.093Z,971.81
2017-12-05T01:13:45.103Z,971.8
2017-12-05T01:14:45.116Z,971.86
2017-12-05T01:15:45.130Z,971.9
2017-12-05T01:16:45.147Z,971.87
2017-12-05T01:17:45.172Z,971.94
2017-12-05T01:18:45.166Z,971.91
2017-12-05T01:19:45.178Z,971.9
2017-12-05T01:20:45.192Z,971.87
2017-12-05T01:21:45.203Z,971.84
2017-12-05T01:22:45.217Z,971.85
2017-12-05T01:23:45.229Z,971.83
2017-12-05T01:24:45.242Z,971.87
2017-12-05T01:25:45.254Z,971.91
2017-12-05T01:26:45.266Z,971.86
2017-12-05T01:27:45.278Z,971.91
2017-12-05T01:28:45.291Z,971.91
2017-12-05T01:29:45.302Z,971.94
2017-12-05T01:30:45.323Z,971.93
2017-12-05T01:31:45.328Z,971.98
2017-12-05T01:32:45.342Z,972.03
2017-12-05T01:33:45.354Z,972.02
2017-12-05T01:34:45.366Z,972.03
2017-12-05T01:35:45.380Z,972.02
2017-12-05T01:36:45.391Z,972.02
2017-12-05T01:37:45.403Z,972.04
2017-12-05T01:38:45.417Z,972.02
2017-12-05T01:39:45.431Z,972.01
2017-12-05T01:40:45.444Z,972.03
2017-12-05T01:41:45.455Z,971.95
2017-12-05T01:42:45.468Z,971.97
2017-12-05T01:43:45.480Z,972
2017-12-05T01:44:45.495Z,971.98
2017-12-05T01:45:45.506Z,971.97
2017-12-05T01:46:45.519Z,971.94
2017-12-05T01:47:45.530Z,971.98
2017-12-05T01:48:45.544Z,972.02
2017-12-05T01:49:45.558Z,972.01
2017-12-05T01:50:45.569Z,972.01
2017-12-05T01:51:45.580Z,972.02
2017-12-05T01:52:45.593Z,971.98
2017-12-05T01:53:45.606Z,972.1
2017-12-05T01:54:45.619Z,972.11
2017-12-05T01:55:45.631Z,972.06
2017-12-05T01:56:45.694Z,972.08
2017-12-05T01:57:45.657Z,972.09
2017-12-05T01:58:45.669Z,972.05
2017-12-05T01:59:45.681Z,972.06
2017-12-05T02:00:45.694Z,972.13
2017-12-05T02:01:45.707Z,972.1
2017-12-05T02:02:45.718Z,972.08
2017-12-05T02:03:45.731Z,972.17
2017-12-05T02:04:45.744Z,972.12
2017-12-05T02:05:45.756Z,972.12
2017-12-05T02:06:45.768Z,972.11
2017-12-05T02:07:45.790Z,972.11
2017-12-05T02:08:45.795Z,972.05
2017-12-05T02:09:45.805Z,972.09
2017-12-05T02:10:45.822Z,972.06
2017-12-05T02:11:45.881Z,972.07
2017-12-05T02:12:45.844Z,972.05
2017-12-05T02:13:45.861Z,972.06
2017-12-05T02:14:45.872Z,972
2017-12-05T02:15:45.880Z,972.04
2017-12-05T02:16:45.992Z,972.13
2017-12-05T02:17:45.907Z,972.11
2017-12-05T02:18:45.918Z,972.09
2017-12-05T02:19:45.932Z,972.11
2017-12-05T02:20:45.943Z,972.03
2017-12-05T02:21:45.959Z,972.11
2017-12-05T02:22:45.969Z,972.11
2017-12-05T02:23:45.981Z,972.12
2017-12-05T02:24:45.993Z,972.11
2017-12-05T02:25:46.006Z,972.1
2017-12-05T02:26:46.019Z,972.06
2017-12-05T02:27:46.031Z,972.06
2017-12-05T02:28:46.043Z,971.97
2017-12-05T02:29:46.056Z,971.99
2017-12-05T02:30:46.069Z,971.99
2017-12-05T02:31:46.081Z,971.99
2017-12-05T02:32:46.093Z,972
2017-12-05T02:33:46.105Z,972.01
2017-12-05T02:34:46.118Z,972.07
2017-12-05T02:35:46.131Z,972.1
2017-12-05T02:36:46.144Z,972.06
2017-12-05T02:37:46.158Z,972.01
2017-12-05T02:38:46.166Z,972.01
2017-12-05T02:39:46.179Z,972.06
2017-12-05T02:40:46.194Z,972.08
2017-12-05T02:41:46.205Z,972.09
2017-12-05T02:42:46.218Z,972.11
2017-12-05T02:43:46.228Z,972.09
2017-12-05T02:44:46.242Z,972.12
2017-12-05T02:45:46.254Z,972.08
2017-12-05T02:46:46.265Z,972.12
2017-12-05T02:47:46.279Z,972.11
2017-12-05T02:48:46.290Z,972.14
2017-12-05T02:49:46.303Z,972.1
2017-12-05T02:50:46.316Z,972.1
2017-12-05T02:51:46.328Z,972.11
2017-12-05T02:52:46.341Z,972.08
2017-12-05T02:53:46.353Z,972.1
2017-12-05T02:54:46.365Z,972.07
2017-12-05T02:55:46.377Z,972.09
2017-12-05T02:56:46.390Z,972.1
2017-12-05T02:57:46.409Z,972.16
2017-12-05T02:58:46.413Z,972.12
2017-12-05T02:59:46.426Z,972.06
2017-12-05T03:00:46.438Z,972.05
2017-12-05T03:01:46.452Z,972.06
2017-12-05T03:02:46.463Z,972.13
2017-12-05T03:03:46.477Z,972.1
2017-12-05T03:04:46.489Z,972.09
2017-12-05T03:05:46.547Z,972.08
2017-12-05T03:06:46.514Z,972.13
2017-12-05T03:07:46.527Z,972.11
2017-12-05T03:08:46.538Z,972.13
2017-12-05T03:09:46.552Z,972.19
2017-12-05T03:10:46.564Z,972.16
2017-12-05T03:11:46.576Z,972.12
2017-12-05T03:12:46.588Z,972.13
2017-12-05T03:13:46.600Z,972.11
2017-12-05T03:14:46.613Z,972.18
2017-12-05T03:15:46.624Z,972.14
2017-12-05T03:16:46.638Z,972.15
2017-12-05T03:17:46.650Z,972.12
2017-12-05T03:18:46.665Z,972.14
2017-12-05T03:19:46.677Z,972.16
2017-12-05T03:20:46.690Z,972.09
2017-12-05T03:21:46.702Z,972.14
2017-12-05T03:22:46.714Z,972.14
2017-12-05T03:23:46.726Z,972.1
2017-12-05T03:24:46.740Z,972.11
2017-12-05T03:25:46.752Z,972.16
2017-12-05T03:26:46.764Z,972.15
2017-12-05T03:27:46.778Z,972.18
2017-12-05T03:28:46.789Z,972.19
2017-12-05T03:29:46.802Z,972.27
2017-12-05T03:30:46.816Z,972.26
2017-12-05T03:31:46.827Z,972.25
2017-12-05T03:32:46.841Z,972.25
2017-12-05T03:33:46.854Z,972.24
2017-12-05T03:34:46.866Z,972.29
2017-12-05T03:35:46.879Z,972.3
2017-12-05T03:36:46.892Z,972.35
2017-12-05T03:37:46.903Z,972.34
2017-12-05T03:38:46.916Z,972.31
2017-12-05T03:39:46.933Z,972.33
2017-12-05T03:40:46.969Z,972.36
2017-12-05T03:41:46.954Z,972.39
2017-12-05T03:42:46.968Z,972.4
2017-12-05T03:43:46.980Z,972.37
2017-12-05T03:44:46.992Z,972.39
2017-12-05T03:45:47.006Z,972.4
2017-12-05T03:46:47.018Z,972.42
2017-12-05T03:47:47.031Z,972.36
2017-12-05T03:48:47.043Z,972.39
2017-12-05T03:49:47.057Z,972.46
2017-12-05T03:50:47.075Z,972.4
2017-12-05T03:51:47.081Z,972.42
2017-12-05T03:52:47.099Z,972.4
2017-12-05T03:53:47.107Z,972.35
2017-12-05T03:54:47.122Z,972.37
2017-12-05T03:55:47.132Z,972.37
2017-12-05T03:56:47.145Z,972.36
2017-12-05T03:57:47.158Z,972.38
2017-12-05T03:58:47.172Z,972.35
2017-12-05T03:59:47.187Z,972.4
2017-12-05T04:00:47.196Z,972.33
2017-12-05T04:01:47.210Z,972.39
2017-12-05T04:02:47.223Z,972.37
2017-12-05T04:03:47.234Z,972.39
2017-12-05T04:04:47.248Z,972.42
2017-12-05T04:05:47.260Z,972.41
2017-12-05T04:06:47.273Z,972.44
2017-12-05T04:07:47.285Z,972.43
2017-12-05T04:08:47.298Z,972.4
2017-12-05T04:09:47.311Z,972.38
2017-12-05T04:10:47.323Z,972.4
2017-12-05T04:11:47.336Z,972.37
2017-12-05T04:12:47.354Z,972.41
2017-12-05T04:13:47.363Z,972.4
2017-12-05T04:14:47.375Z,972.41
2017-12-05T04:15:47.388Z,972.42
2017-12-05T04:16:47.408Z,972.38
2017-12-05T04:17:47.414Z,972.4
2017-12-05T04:18:47.428Z,972.4
2017-12-05T04:19:47.441Z,972.38
2017-12-05T04:20:47.455Z,972.42
2017-12-05T04:21:47.467Z,972.4
2017-12-05T04:22:47.481Z,972.38
2017-12-05T04:23:47.513Z,972.46
2017-12-05T04:24:47.505Z,972.41
2017-12-05T04:25:47.519Z,972.44
2017-12-05T04:26:47.531Z,972.41
2017-12-05T04:27:47.544Z,972.44
2017-12-05T04:28:47.557Z,972.39
2017-12-05T04:29:47.569Z,972.44
2017-12-05T04:30:47.583Z,972.42
2017-12-05T04:31:47.600Z,972.42
2017-12-05T04:32:47.609Z,972.41
2017-12-05T04:33:47.623Z,972.4
2017-12-05T04:34:47.636Z,972.42
2017-12-05T04:35:47.647Z,972.44
2017-12-05T04:36:47.660Z,972.41
2017-12-05T04:37:47.673Z,972.44
2017-12-05T04:38:47.688Z,972.47
2017-12-05T04:39:47.701Z,972.43
2017-12-05T04:40:47.713Z,972.44
2017-12-05T04:41:47.727Z,972.49
2017-12-05T04:42:47.739Z,972.52
2017-12-05T04:43:47.751Z,972.52
2017-12-05T04:44:47.764Z,972.5
2017-12-05T04:45:47.779Z,972.53
2017-12-05T04:46:47.792Z,972.51
2017-12-05T04:47:47.803Z,972.49
2017-12-05T04:48:47.816Z,972.58
2017-12-05T04:49:47.830Z,972.55
2017-12-05T04:50:47.843Z,972.58
2017-12-05T04:51:47.856Z,972.59
2017-12-05T04:52:47.869Z,972.56
2017-12-05T04:53:47.882Z,972.6
2017-12-05T04:54:47.896Z,972.59
2017-12-05T04:55:47.910Z,972.57
2017-12-05T04:56:47.922Z,972.58
2017-12-05T04:57:47.935Z,972.61
2017-12-05T04:58:47.948Z,972.56
2017-12-05T04:59:47.962Z,972.52
2017-12-05T05:00:47.983Z,972.55
2017-12-05T05:01:47.987Z,972.5
2017-12-05T05:02:48.003Z,972.52
2017-12-05T05:03:48.014Z,972.53
2017-12-05T05:04:48.027Z,972.5
2017-12-05T05:05:48.041Z,972.55
2017-12-05T05:06:48.066Z,972.52
2017-12-05T05:07:48.066Z,972.54
2017-12-05T05:08:48.079Z,972.56
2017-12-05T05:09:48.092Z,972.65
2017-12-05T05:10:48.109Z,972.72
2017-12-05T05:11:48.118Z,972.68
2017-12-05T05:12:48.130Z,972.7
2017-12-05T05:13:48.144Z,972.71
2017-12-05T05:14:48.158Z,972.69
2017-12-05T05:15:48.169Z,972.73
2017-12-05T05:16:48.183Z,972.7
2017-12-05T05:17:48.198Z,972.69
2017-12-05T05:18:48.209Z,972.64
2017-12-05T05:19:48.223Z,972.68
2017-12-05T05:20:48.236Z,972.72
2017-12-05T05:21:48.248Z,972.66
2017-12-05T05:22:48.261Z,972.68
2017-12-05T05:23:48.273Z,972.68
2017-12-05T05:24:48.288Z,972.66
2017-12-05T05:25:48.300Z,972.65
2017-12-05T05:26:48.314Z,972.61
2017-12-05T05:27:48.325Z,972.6
2017-12-05T05:28:48.338Z,972.56
2017-12-05T05:29:48.352Z,972.62
2017-12-05T05:30:48.364Z,972.57
2017-12-05T05:31:48.378Z,972.58
2017-12-05T05:32:48.392Z,972.6
2017-12-05T05:33:48.405Z,972.58
2017-12-05T05:34:48.417Z,972.58
2017-12-05T05:35:48.432Z,972.68
2017-12-05T05:36:48.443Z,972.69
2017-12-05T05:37:48.456Z,972.73
2017-12-05T05:38:48.470Z,972.74
2017-12-05T05:39:48.484Z,972.74
2017-12-05T05:40:48.496Z,972.71
2017-12-05T05:41:48.508Z,972.74
2017-12-05T05:42:48.522Z,972.76
2017-12-05T05:43:48.537Z,972.78
2017-12-05T05:44:48.549Z,972.76
2017-12-05T05:45:48.560Z,972.74
2017-12-05T05:46:48.573Z,972.74
2017-12-05T05:47:48.588Z,972.78
2017-12-05T05:48:48.609Z,972.75
2017-12-05T05:49:48.618Z,972.78
2017-12-05T05:50:48.626Z,972.8
2017-12-05T05:51:48.641Z,972.76
2017-12-05T05:52:48.653Z,972.76
2017-12-05T05:53:48.666Z,972.74
2017-12-05T05:54:48.678Z,972.77
2017-12-05T05:55:48.692Z,972.75
2017-12-05T05:56:48.705Z,972.81
2017-12-05T05:57:48.769Z,972.81
2017-12-05T05:58:48.731Z,972.83
2017-12-05T05:59:48.744Z,972.87
2017-12-05T06:00:48.758Z,972.82
2017-12-05T06:01:48.831Z,972.85
2017-12-05T06:02:48.785Z,972.86
2017-12-05T06:03:48.797Z,972.9
2017-12-05T06:04:48.814Z,972.87
2017-12-05T06:05:48.823Z,972.9
2017-12-05T06:06:48.841Z,972.88
2017-12-05T06:07:48.849Z,972.86
2017-12-05T06:08:48.867Z,972.83
2017-12-05T06:09:48.877Z,972.81
2017-12-05T06:10:48.889Z,972.79
2017-12-05T06:11:48.903Z,972.8
2017-12-05T06:12:48.967Z,972.81
2017-12-05T06:13:48.930Z,972.81
2017-12-05T06:14:48.943Z,972.75
2017-12-05T06:15:48.957Z,972.85
2017-12-05T06:16:48.970Z,972.85
2017-12-05T06:17:48.984Z,972.84
2017-12-05T06:18:48.996Z,972.86
2017-12-05T06:19:49.010Z,972.84
2017-12-05T06:20:49.022Z,972.81
2017-12-05T06:21:49.034Z,972.87
2017-12-05T06:22:49.049Z,972.86
2017-12-05T06:23:49.062Z,972.83
2017-12-05T06:24:49.076Z,972.87
2017-12-05T06:25:49.107Z,972.86
2017-12-05T06:26:49.101Z,972.93
2017-12-05T06:27:49.167Z,972.87
2017-12-05T06:28:49.129Z,972.93
2017-12-05T06:29:49.143Z,972.94
2017-12-05T06:30:49.156Z,972.9
2017-12-05T06:31:49.172Z,972.97
2017-12-05T06:32:49.187Z,972.95
2017-12-05T06:33:49.198Z,972.95
2017-12-05T06:34:49.211Z,972.9
2017-12-05T06:35:49.226Z,972.94
2017-12-05T06:36:49.239Z,972.92
2017-12-05T06:37:49.251Z,973.01
2017-12-05T06:38:49.265Z,972.9
2017-12-05T06:39:49.278Z,972.95
2017-12-05T06:40:49.292Z,972.97
2017-12-05T06:41:49.305Z,972.94
2017-12-05T06:42:49.369Z,972.98
2017-12-05T06:43:49.331Z,972.98
2017-12-05T06:44:49.347Z,972.96
2017-12-05T06:45:49.359Z,973.01
2017-12-05T06:46:49.373Z,972.96
2017-12-05T06:47:49.387Z,972.97
2017-12-05T06:48:49.399Z,972.94
2017-12-05T06:49:49.413Z,972.99
2017-12-05T06:50:49.427Z,973.04
2017-12-05T06:51:49.439Z,973.02
2017-12-05T06:52:49.487Z,973.04
2017-12-05T06:53:49.468Z,973.04
2017-12-05T06:54:49.479Z,973
2017-12-05T06:55:49.493Z,972.99
2017-12-05T06:56:49.507Z,973.08
2017-12-05T06:57:49.571Z,973.03
2017-12-05T06:58:49.533Z,972.97
2017-12-05T06:59:49.547Z,973
2017-12-05T07:00:49.561Z,973.02
2017-12-05T07:01:49.589Z,973.12
2017-12-05T07:02:49.589Z,973.07
2017-12-05T07:03:49.601Z,972.99
2017-12-05T07:04:49.616Z,973.1
2017-12-05T07:05:49.627Z,973.1
2017-12-05T07:06:49.642Z,973.09
2017-12-05T07:07:49.654Z,973.12
2017-12-05T07:08:49.668Z,973.16
2017-12-05T07:09:49.681Z,973.21
2017-12-05T07:10:49.695Z,973.2
2017-12-05T07:11:49.710Z,973.26
2017-12-05T07:12:49.771Z,973.24
2017-12-05T07:13:49.734Z,973.29
2017-12-05T07:14:49.748Z,973.32
2017-12-05T07:15:49.762Z,973.29
2017-12-05T07:16:49.774Z,973.32
2017-12-05T07:17:49.789Z,973.34
2017-12-05T07:18:49.801Z,973.29
2017-12-05T07:19:49.842Z,973.34
2017-12-05T07:20:49.827Z,973.36
2017-12-05T07:21:49.841Z,973.33
2017-12-05T07:22:49.853Z,973.39
2017-12-05T07:23:49.866Z,973.36
2017-12-05T07:24:49.880Z,973.37
2017-12-05T07:25:49.896Z,973.41
2017-12-05T07:26:49.909Z,973.41
2017-12-05T07:27:49.971Z,973.42
2017-12-05T07:28:49.934Z,973.46
2017-12-05T07:29:49.948Z,973.49
2017-12-05T07:30:49.963Z,973.42
2017-12-05T07:31:49.973Z,973.41
2017-12-05T07:32:49.987Z,973.4
2017-12-05T07:33:50.002Z,973.45
2017-12-05T07:34:50.014Z,973.45
2017-12-05T07:35:50.028Z,973.51
2017-12-05T07:36:50.047Z,973.44
2017-12-05T07:37:50.073Z,973.5
2017-12-05T07:38:50.068Z,973.47
2017-12-05T07:39:50.082Z,973.51
2017-12-05T07:40:50.095Z,973.5
2017-12-05T07:41:50.109Z,973.51
2017-12-05T07:42:50.171Z,973.52
2017-12-05T07:43:50.135Z,973.53
2017-12-05T07:44:50.158Z,973.58
2017-12-05T07:45:50.162Z,973.56
2017-12-05T07:46:50.176Z,973.59
2017-12-05T07:47:50.189Z,973.58
2017-12-05T07:48:50.205Z,973.56
2017-12-05T07:49:50.214Z,973.55
2017-12-05T07:50:50.229Z,973.57
2017-12-05T07:51:50.242Z,973.56
2017-12-05T07:52:50.256Z,973.59
2017-12-05T07:53:50.272Z,973.58
2017-12-05T07:54:50.282Z,973.57
2017-12-05T07:55:50.296Z,973.6
2017-12-05T07:56:50.309Z,973.62
2017-12-05T07:57:50.373Z,973.57
2017-12-05T07:58:50.338Z,973.6
2017-12-05T07:59:50.351Z,973.6
2017-12-05T08:00:50.364Z,973.61
2017-12-05T08:01:50.378Z,973.63
2017-12-05T08:02:50.399Z,973.63
2017-12-05T08:03:50.438Z,973.66
2017-12-05T08:04:50.420Z,973.65
2017-12-05T08:05:50.434Z,973.68
2017-12-05T08:06:50.449Z,973.61
2017-12-05T08:07:50.461Z,973.7
2017-12-05T08:08:50.475Z,973.67
2017-12-05T08:09:50.490Z,973.62
2017-12-05T08:10:50.507Z,973.69
2017-12-05T08:11:50.518Z,973.77
2017-12-05T08:12:50.583Z,973.66
2017-12-05T08:13:50.560Z,973.71
2017-12-05T08:14:50.561Z,973.72
2017-12-05T08:15:50.574Z,973.73
2017-12-05T08:16:50.592Z,973.71
2017-12-05T08:17:50.605Z,973.71
2017-12-05T08:18:50.616Z,973.69
2017-12-05T08:19:50.631Z,973.7
2017-12-05T08:20:50.645Z,973.71
2017-12-05T08:21:50.661Z,973.69
2017-12-05T08:22:50.674Z,973.66
2017-12-05T08:23:50.735Z,973.69
2017-12-05T08:24:50.701Z,973.69
2017-12-05T08:25:50.721Z,973.77
2017-12-05T08:26:50.729Z,973.72
2017-12-05T08:27:50.793Z,973.7
2017-12-05T08:28:50.758Z,973.75
2017-12-05T08:29:50.771Z,973.78
2017-12-05T08:30:50.786Z,973.77
2017-12-05T08:31:50.800Z,973.83
2017-12-05T08:32:50.814Z,973.83
2017-12-05T08:33:50.828Z,973.84
2017-12-05T08:34:50.842Z,973.81
2017-12-05T08:35:50.856Z,973.78
2017-12-05T08:36:50.868Z,973.79
2017-12-05T08:37:50.883Z,973.79
2017-12-05T08:38:50.899Z,973.84
2017-12-05T08:39:50.912Z,973.85
2017-12-05T08:40:50.925Z,973.86
2017-12-05T08:41:50.940Z,973.86
2017-12-05T08:42:51.005Z,973.89
2017-12-05T08:43:50.970Z,973.91
2017-12-05T08:44:50.981Z,973.95
2017-12-05T08:45:50.997Z,973.94
2017-12-05T08:46:51.011Z,973.98
2017-12-05T08:47:51.025Z,973.87
2017-12-05T08:48:51.038Z,973.94
2017-12-05T08:49:51.057Z,973.93
2017-12-05T08:50:51.067Z,973.91
2017-12-05T08:51:51.080Z,973.94
2017-12-05T08:52:51.095Z,973.93
2017-12-05T08:53:51.110Z,973.87
2017-12-05T08:54:51.124Z,973.96
2017-12-05T08:55:51.155Z,973.86
2017-12-05T08:56:51.151Z,973.89
2017-12-05T08:57:51.217Z,973.91
2017-12-05T08:58:51.180Z,973.93
2017-12-05T08:59:51.194Z,973.94
2017-12-05T09:00:51.209Z,973.95
2017-12-05T09:01:51.226Z,973.92
2017-12-05T09:02:51.238Z,974.05
2017-12-05T09:03:51.251Z,973.95
2017-12-05T09:04:51.266Z,973.98
2017-12-05T09:05:51.280Z,973.93
2017-12-05T09:06:51.300Z,973.95
2017-12-05T09:07:51.308Z,974.02
2017-12-05T09:08:51.321Z,973.99
2017-12-05T09:09:51.337Z,974.02
2017-12-05T09:10:51.350Z,974.03
2017-12-05T09:11:51.364Z,974.14
2017-12-05T09:12:51.430Z,974.07
2017-12-05T09:13:51.392Z,974.04
2017-12-05T09:14:51.406Z,974.04
2017-12-05T09:15:51.422Z,974.07
2017-12-05T09:16:51.436Z,974.04
2017-12-05T09:17:51.449Z,974.07
2017-12-05T09:18:51.465Z,974.07
2017-12-05T09:19:51.479Z,974.07
2017-12-05T09:20:51.491Z,974.13
2017-12-05T09:21:51.506Z,974.13
2017-12-05T09:22:51.522Z,974.07
2017-12-05T09:23:51.535Z,974.1
2017-12-05T09:24:51.550Z,974.15
2017-12-05T09:25:51.563Z,974.14
2017-12-05T09:26:51.580Z,974.18
2017-12-05T09:27:51.648Z,974.16
2017-12-05T09:28:51.608Z,974.18
2017-12-05T09:29:51.622Z,974.26
2017-12-05T09:30:51.638Z,974.16
2017-12-05T09:31:51.652Z,974.19
2017-12-05T09:32:51.667Z,974.18
2017-12-05T09:33:51.681Z,974.15
2017-12-05T09:34:51.697Z,974.16
2017-12-05T09:35:51.711Z,974.26
2017-12-05T09:36:51.726Z,974.24
2017-12-05T09:37:51.740Z,974.18
2017-12-05T09:38:51.756Z,974.18
2017-12-05T09:39:51.772Z,974.13
2017-12-05T09:40:51.788Z,974.12
2017-12-05T09:41:51.801Z,974.16
2017-12-05T09:42:51.815Z,974.13
2017-12-05T09:43:51.831Z,974.12
2017-12-05T09:44:51.998Z,974.12
2017-12-05T09:45:51.880Z,974.08
2017-12-05T09:46:51.877Z,974.11
2017-12-05T09:47:51.896Z,974.14
2017-12-05T09:48:51.908Z,973.99
2017-12-05T09:49:51.921Z,974
2017-12-05T09:50:51.941Z,974.06
2017-12-05T09:51:52.000Z,973.92
2017-12-05T09:52:51.969Z,974.05
2017-12-05T09:53:51.983Z,973.99
2017-12-05T09:54:52.005Z,974.04
2017-12-05T09:55:52.013Z,974.04
2017-12-05T09:56:52.028Z,973.98
2017-12-05T09:57:52.044Z,974.01
2017-12-05T09:58:52.058Z,974.01
2017-12-05T09:59:52.125Z,973.98
2017-12-05T10:00:52.088Z,973.99
2017-12-05T10:01:52.106Z,974.08
2017-12-05T10:02:52.120Z,974
2017-12-05T10:03:52.136Z,973.97
2017-12-05T10:04:52.154Z,974
2017-12-05T10:05:52.163Z,973.95
2017-12-05T10:06:52.181Z,974.01
2017-12-05T10:07:52.196Z,973.97
2017-12-05T10:08:52.209Z,974.06
2017-12-05T10:09:52.236Z,974.03
2017-12-05T10:10:52.240Z,974.02
2017-12-05T10:11:52.260Z,974.05
2017-12-05T10:12:52.270Z,974.03
2017-12-05T10:13:52.284Z,974.07
2017-12-05T10:14:52.354Z,974.02
2017-12-05T10:15:52.313Z,974.03
2017-12-05T10:16:52.328Z,974.01
2017-12-05T10:17:52.345Z,974.05
2017-12-05T10:18:52.358Z,973.99
2017-12-05T10:19:52.374Z,973.97
2017-12-05T10:20:52.389Z,973.96
2017-12-05T10:21:52.404Z,974.05
2017-12-05T10:22:52.419Z,973.97
2017-12-05T10:23:52.439Z,973.93
2017-12-05T10:24:52.449Z,973.93
2017-12-05T10:25:52.464Z,973.95
2017-12-05T10:26:52.479Z,973.93
2017-12-05T10:27:52.495Z,973.95
2017-12-05T10:28:52.511Z,973.95
2017-12-05T10:29:52.574Z,973.98
2017-12-05T10:30:52.541Z,973.88
2017-12-05T10:31:52.557Z,974
2017-12-05T10:32:52.571Z,974.03
2017-12-05T10:33:52.584Z,973.97
2017-12-05T10:34:52.600Z,973.91
2017-12-05T10:35:52.615Z,973.95
2017-12-05T10:36:52.630Z,973.87
2017-12-05T10:37:52.646Z,973.93
2017-12-05T10:38:52.670Z,973.87
2017-12-05T10:39:52.676Z,973.87
2017-12-05T10:40:52.692Z,973.86
2017-12-05T10:41:52.705Z,973.91
2017-12-05T10:42:52.757Z,973.85
2017-12-05T10:43:52.737Z,973.83
2017-12-05T10:44:52.800Z,973.83
2017-12-05T10:45:52.766Z,973.82
2017-12-05T10:46:52.783Z,973.87
2017-12-05T10:47:52.797Z,973.87
2017-12-05T10:48:52.811Z,973.81
2017-12-05T10:49:52.833Z,973.83
2017-12-05T10:50:52.843Z,973.78
2017-12-05T10:51:52.859Z,973.85
2017-12-05T10:52:52.872Z,973.84
2017-12-05T10:53:52.889Z,973.84
2017-12-05T10:54:53.004Z,973.8
2017-12-05T10:55:52.919Z,973.79
2017-12-05T10:56:52.934Z,973.81
2017-12-05T10:57:52.950Z,973.8
2017-12-05T10:58:52.967Z,973.78
2017-12-05T10:59:53.136Z,973.79
2017-12-05T11:00:53.005Z,973.77
2017-12-05T11:01:53.013Z,973.74
2017-12-05T11:02:53.029Z,973.7
2017-12-05T11:03:53.044Z,973.74
2017-12-05T11:04:53.061Z,973.69
2017-12-05T11:05:53.076Z,973.72
2017-12-05T11:06:53.092Z,973.76
2017-12-05T11:07:53.108Z,973.74
2017-12-05T11:08:53.125Z,973.71
2017-12-05T11:09:53.145Z,973.75
2017-12-05T11:10:53.157Z,973.7
2017-12-05T11:11:53.173Z,973.74
2017-12-05T11:12:53.188Z,973.69
2017-12-05T11:13:53.206Z,973.76
2017-12-05T11:14:53.223Z,973.69
2017-12-05T11:15:53.237Z,973.66
2017-12-05T11:16:53.253Z,973.73
2017-12-05T11:17:53.269Z,973.7
2017-12-05T11:18:53.286Z,973.67
2017-12-05T11:19:53.302Z,973.73
2017-12-05T11:20:53.319Z,973.73
2017-12-05T11:21:53.333Z,973.73
2017-12-05T11:22:53.358Z,973.73
2017-12-05T11:23:53.366Z,973.71
2017-12-05T11:24:53.381Z,973.7
2017-12-05T11:25:53.404Z,973.68
2017-12-05T11:26:53.415Z,973.67
2017-12-05T11:27:53.431Z,973.72
2017-12-05T11:28:53.448Z,973.67
2017-12-05T11:29:53.467Z,973.75
2017-12-05T11:30:53.481Z,973.71
2017-12-05T11:31:53.497Z,973.72
2017-12-05T11:32:53.514Z,973.71
2017-12-05T11:33:53.529Z,973.75
2017-12-05T11:34:53.545Z,973.8
2017-12-05T11:35:53.561Z,973.71
2017-12-05T11:36:53.578Z,973.7
2017-12-05T11:37:53.593Z,973.68
2017-12-05T11:38:53.614Z,973.73
2017-12-05T11:39:53.627Z,973.72
2017-12-05T11:40:53.645Z,973.79
2017-12-05T11:41:53.659Z,973.69
2017-12-05T11:42:53.676Z,973.74
2017-12-05T11:43:53.691Z,973.72
2017-12-05T11:44:53.710Z,973.7
2017-12-05T11:45:53.725Z,973.65
2017-12-05T11:46:53.740Z,973.64
2017-12-05T11:47:53.756Z,973.61
2017-12-05T11:48:53.773Z,973.62
2017-12-05T11:49:53.790Z,973.58
2017-12-05T11:50:53.805Z,973.66
2017-12-05T11:51:53.820Z,973.5
2017-12-05T11:52:53.838Z,973.68
2017-12-05T11:53:53.855Z,973.68
2017-12-05T11:54:53.868Z,973.61
2017-12-05T11:55:53.886Z,973.62
2017-12-05T11:56:53.901Z,973.65
2017-12-05T11:57:53.917Z,973.65
2017-12-05T11:58:53.933Z,973.71
2017-12-05T11:59:53.949Z,973.71
2017-12-05T12:00:53.965Z,973.7
2017-12-05T12:01:53.980Z,973.68
2017-12-05T12:02:53.996Z,973.67
2017-12-05T12:03:54.012Z,973.77
2017-12-05T12:04:54.029Z,973.72
2017-12-05T12:05:54.045Z,973.69
2017-12-05T12:06:54.063Z,973.69
2017-12-05T12:07:54.080Z,973.63
2017-12-05T12:08:54.093Z,973.74
2017-12-05T12:09:54.109Z,973.69
2017-12-05T12:10:54.130Z,973.65
2017-12-05T12:11:54.142Z,973.65
2017-12-05T12:12:54.158Z,973.59
2017-12-05T12:13:54.176Z,973.59
2017-12-05T12:14:54.191Z,973.56
2017-12-05T12:15:54.210Z,973.57
2017-12-05T12:16:54.225Z,973.57
2017-12-05T12:17:54.242Z,973.6
2017-12-05T12:18:54.261Z,973.57
2017-12-05T12:19:54.275Z,973.52
2017-12-05T12:20:54.293Z,973.64
2017-12-05T12:21:54.310Z,973.54
2017-12-05T12:22:54.328Z,973.55
2017-12-05T12:23:54.344Z,973.5
2017-12-05T12:24:54.362Z,973.57
2017-12-05T12:25:54.378Z,973.58
2017-12-05T12:26:54.400Z,973.59
2017-12-05T12:27:54.411Z,973.66
2017-12-05T12:28:54.429Z,973.51
2017-12-05T12:29:54.447Z,973.47
2017-12-05T12:30:54.461Z,973.51
2017-12-05T12:31:54.479Z,973.51